createdAt,value
2023-09-08T00:02:34.718Z,10.60
2023-09-08T00:07:37.712Z,12.00
2023-09-08T00:12:42.201Z,10.00
2023-09-08T00:17:45.270Z,9.80
2023-09-08T00:22:48.561Z,9.80
2023-09-08T00:27:53.099Z,9.00
2023-09-08T00:32:56.230Z,9.00
2023-09-08T00:37:59.405Z,9.00
2023-09-08T00:43:03.794Z,10.60
2023-09-08T00:48:08.688Z,9.20
2023-09-08T00:53:11.913Z,9.00
2023-09-08T00:58:16.396Z,9.40
2023-09-08T01:03:19.467Z,9.00
2023-09-08T01:08:22.628Z,10.60
2023-09-08T01:13:27.007Z,9.00
2023-09-08T01:18:30.109Z,10.80
2023-09-08T01:23:39.614Z,9.00
2023-09-08T01:28:44.112Z,9.20
2023-09-08T01:33:48.876Z,9.20
2023-09-08T01:38:52.036Z,9.00
2023-09-08T01:43:56.946Z,10.00
2023-09-08T01:48:59.890Z,10.80
2023-09-08T01:54:02.895Z,9.20
2023-09-08T01:59:07.280Z,10.40
2023-09-08T02:04:10.310Z,9.60
2023-09-08T02:09:15.974Z,9.80
2023-09-08T02:14:20.320Z,7.60
2023-09-08T02:19:23.363Z,10.20
2023-09-08T02:24:26.385Z,8.00
2023-09-08T02:29:33.094Z,10.60
2023-09-08T02:34:38.243Z,8.00
2023-09-08T02:39:43.043Z,9.60
2023-09-08T02:44:48.033Z,9.80
2023-09-08T02:49:51.272Z,8.40
2023-09-08T02:54:54.306Z,8.00
2023-09-08T02:59:58.597Z,10.20
2023-09-08T03:05:01.631Z,8.40
2023-09-08T03:10:05.782Z,8.80
2023-09-08T03:15:11.233Z,10.60
2023-09-08T03:20:15.537Z,11.00
2023-09-08T03:25:18.562Z,8.00
2023-09-08T03:30:22.994Z,10.20
2023-09-08T03:35:26.211Z,8.40
2023-09-08T03:40:29.223Z,10.00
2023-09-08T03:45:35.163Z,9.80
2023-09-08T03:50:38.234Z,10.00
2023-09-08T03:55:41.238Z,10.40
2023-09-08T04:00:45.624Z,8.20
2023-09-08T04:05:48.763Z,10.80
2023-09-08T04:10:51.685Z,10.20
2023-09-08T04:15:56.326Z,8.80
2023-09-08T04:20:59.438Z,9.80
2023-09-08T04:26:03.119Z,10.20
2023-09-08T04:31:07.531Z,11.00
2023-09-08T04:36:12.203Z,9.60
2023-09-08T04:41:15.262Z,10.00
2023-09-08T04:46:19.830Z,10.00
2023-09-08T04:51:23.076Z,10.20
2023-09-08T04:56:26.537Z,8.60
2023-09-08T05:01:33.584Z,10.20
2023-09-08T05:06:38.365Z,9.80
2023-09-08T05:11:41.701Z,10.00
2023-09-08T05:16:50.355Z,10.40
2023-09-08T05:21:57.852Z,10.00
2023-09-08T05:27:01.025Z,10.60
2023-09-08T05:32:06.230Z,10.00
2023-09-08T05:37:09.790Z,10.00
2023-09-08T05:42:12.876Z,12.00
2023-09-08T05:47:17.507Z,11.60
2023-09-08T05:52:21.669Z,11.80
2023-09-08T05:57:24.964Z,11.00
2023-09-08T06:02:29.497Z,10.00
2023-09-08T06:07:32.813Z,11.80
2023-09-08T06:12:35.970Z,12.60
2023-09-08T06:17:40.600Z,12.40
2023-09-08T06:22:43.757Z,11.80
2023-09-08T06:27:47.837Z,11.80
2023-09-08T06:32:52.455Z,10.80
2023-09-08T06:37:55.992Z,13.40
2023-09-08T06:43:01.348Z,12.00
2023-09-08T06:48:19.823Z,10.00
2023-09-08T06:53:23.148Z,12.40
2023-09-08T06:58:26.424Z,12.20
2023-09-08T07:03:38.779Z,11.80
2023-09-08T07:08:45.233Z,10.80
2023-09-08T07:13:49.126Z,11.00
2023-09-08T07:18:53.860Z,10.40
2023-09-08T07:23:57.088Z,12.40
2023-09-08T07:29:00.568Z,15.20
2023-09-08T07:34:05.177Z,11.40
2023-09-08T07:39:08.871Z,13.80
2023-09-08T07:44:12.002Z,11.40
2023-09-08T07:49:16.703Z,12.60
2023-09-08T07:54:20.790Z,10.20
2023-09-08T07:59:24.096Z,10.00
2023-09-08T08:04:28.609Z,10.60
2023-09-08T08:09:31.644Z,10.80
2023-09-08T08:14:34.696Z,10.40
2023-09-08T08:19:39.063Z,12.00
2023-09-08T08:24:42.693Z,11.20
2023-09-08T08:29:45.755Z,11.80
2023-09-08T08:34:50.072Z,11.60
2023-09-08T08:39:53.246Z,10.00
2023-09-08T08:44:57.188Z,11.00
2023-09-08T08:50:02.194Z,13.20
2023-09-08T08:55:06.120Z,10.60
2023-09-08T09:00:11.525Z,13.80
2023-09-08T09:05:16.011Z,11.00
2023-09-08T09:10:19.562Z,11.80
2023-09-08T09:15:30.798Z,11.00
2023-09-08T09:20:35.231Z,11.00
2023-09-08T09:25:39.235Z,11.00
2023-09-08T09:30:49.953Z,11.00
2023-09-08T09:35:55.560Z,11.60
2023-09-08T09:40:59.443Z,11.60
2023-09-08T09:46:03.301Z,10.00
2023-09-08T09:51:19.690Z,11.20
2023-09-08T09:56:22.832Z,11.00
2023-09-08T10:01:27.066Z,10.40
2023-09-08T10:06:31.527Z,9.80
2023-09-08T10:11:36.731Z,11.00
2023-09-08T10:16:41.387Z,10.00
2023-09-08T10:21:47.953Z,10.60
2023-09-08T10:27:20.288Z,11.00
2023-09-08T10:32:30.004Z,8.00
2023-09-08T10:37:34.405Z,10.60
2023-09-08T10:42:37.606Z,8.20
2023-09-08T10:47:44.393Z,10.40
2023-09-08T10:52:53.232Z,7.40
2023-09-08T10:57:56.700Z,10.20
2023-09-08T11:03:01.630Z,9.60
2023-09-08T11:08:06.895Z,9.80
2023-09-08T11:13:09.901Z,9.60
2023-09-08T11:18:13.099Z,8.00
2023-09-08T11:23:17.586Z,8.00
2023-09-08T11:28:20.773Z,8.00
2023-09-08T11:33:26.148Z,8.00
2023-09-08T11:38:32.911Z,8.00
2023-09-08T11:43:36.240Z,9.00
2023-09-08T11:48:39.422Z,8.00
2023-09-08T11:53:43.934Z,8.00
2023-09-08T11:58:47.286Z,8.60
2023-09-08T12:03:54.111Z,8.00
2023-09-08T12:09:03.486Z,8.00
2023-09-08T12:14:08.992Z,9.80
2023-09-08T12:19:32.874Z,8.00
2023-09-08T12:24:58.240Z,8.20
2023-09-08T12:30:02.571Z,7.20
2023-09-08T12:35:06.338Z,8.00
2023-09-08T12:40:12.164Z,7.00
2023-09-08T12:45:15.260Z,9.00
2023-09-08T12:50:18.833Z,8.60
2023-09-08T12:55:23.059Z,9.00
2023-09-08T13:00:26.593Z,8.40
2023-09-08T13:05:29.666Z,7.80
2023-09-08T13:10:34.432Z,7.00
2023-09-08T13:15:37.524Z,7.00
2023-09-08T13:20:40.392Z,8.60
2023-09-08T13:25:45.775Z,7.00
2023-09-08T13:30:48.550Z,7.00
2023-09-08T13:35:51.346Z,7.00
2023-09-08T13:40:55.575Z,7.00
2023-09-08T13:46:04.144Z,6.80
2023-09-08T13:51:07.352Z,7.00
2023-09-08T13:56:14.305Z,6.00
2023-09-08T14:01:19.823Z,7.80
2023-09-08T14:06:29.669Z,6.40
2023-09-08T14:12:15.139Z,6.60
2023-09-08T14:16:58.440Z,7.00
2023-09-08T14:22:01.250Z,7.00
2023-09-08T14:27:08.544Z,7.00
2023-09-08T14:32:11.458Z,6.00
2023-09-08T14:37:14.443Z,6.60
2023-09-08T14:42:18.885Z,7.00
2023-09-08T14:47:21.865Z,7.00
2023-09-08T14:52:24.704Z,7.00
2023-09-08T14:57:29.073Z,5.80
2023-09-08T15:02:32.030Z,5.80
2023-09-08T15:07:35.012Z,5.00
2023-09-08T15:12:39.250Z,4.60
2023-09-08T15:17:42.204Z,5.00
2023-09-08T15:22:45.094Z,5.00
2023-09-08T15:27:49.374Z,5.20
2023-09-08T15:32:52.219Z,4.40
2023-09-08T15:37:54.975Z,5.00
2023-09-08T15:42:59.264Z,4.60
2023-09-08T15:48:03.644Z,4.40
2023-09-08T15:53:06.608Z,4.80
2023-09-08T15:58:11.876Z,4.40
2023-09-08T16:03:14.964Z,5.00
2023-09-08T16:08:17.942Z,5.00
2023-09-08T16:13:22.311Z,4.60
2023-09-08T16:18:25.784Z,4.80
2023-09-08T16:23:28.866Z,4.00
2023-09-08T16:28:33.181Z,5.00
2023-09-08T16:33:36.417Z,5.20
2023-09-08T16:38:39.338Z,5.00
2023-09-08T16:43:43.494Z,4.40
2023-09-08T16:48:46.308Z,5.00
2023-09-08T16:53:49.136Z,5.00
2023-09-08T16:58:53.265Z,4.60
2023-09-08T17:03:56.207Z,5.60
2023-09-08T17:08:59.224Z,5.00
2023-09-08T17:14:03.362Z,5.00
2023-09-08T17:19:06.281Z,4.00
2023-09-08T17:24:09.746Z,5.00
2023-09-08T17:29:14.007Z,5.00
2023-09-08T17:34:20.966Z,5.00
2023-09-08T17:39:23.884Z,4.00
2023-09-08T17:44:28.039Z,4.00
2023-09-08T17:49:30.936Z,3.60
2023-09-08T17:54:33.870Z,4.80
2023-09-08T17:59:38.034Z,3.20
2023-09-08T18:04:42.590Z,4.00
2023-09-08T18:09:45.577Z,5.00
2023-09-08T18:14:50.755Z,4.00
2023-09-08T18:19:53.556Z,4.60
2023-09-08T18:24:56.413Z,6.80
2023-09-08T18:30:00.558Z,7.60
2023-09-08T18:35:03.838Z,7.80
2023-09-08T18:40:11.164Z,7.40
2023-09-08T18:45:20.097Z,5.60
2023-09-08T18:50:22.963Z,8.00
2023-09-08T18:55:25.768Z,8.00
2023-09-08T19:00:29.941Z,9.40
2023-09-08T19:05:32.688Z,7.60
2023-09-08T19:10:35.529Z,10.00
2023-09-08T19:15:40.081Z,9.20
2023-09-08T19:20:42.897Z,9.00
2023-09-08T19:25:45.838Z,9.00
2023-09-08T19:30:51.407Z,8.60
2023-09-08T19:35:54.503Z,8.60
2023-09-08T19:41:04.034Z,8.80
2023-09-08T19:46:08.627Z,9.20
2023-09-08T19:51:11.571Z,9.80
2023-09-08T19:56:14.472Z,11.00
2023-09-08T20:01:19.480Z,12.60
2023-09-08T20:06:22.505Z,11.40
2023-09-08T20:11:27.533Z,10.20
2023-09-08T20:16:31.856Z,10.00
2023-09-08T20:21:34.761Z,10.00
2023-09-08T20:26:37.725Z,10.40
2023-09-08T20:31:41.942Z,11.00
2023-09-08T20:36:44.915Z,10.80
2023-09-08T20:41:48.783Z,11.80
2023-09-08T20:46:53.048Z,12.00
2023-09-08T20:51:55.911Z,12.00
2023-09-08T20:56:58.748Z,13.60
2023-09-08T21:02:03.016Z,11.60
2023-09-08T21:07:05.979Z,14.00
2023-09-08T21:12:09.309Z,13.80
2023-09-08T21:17:13.615Z,11.40
2023-09-08T21:22:16.430Z,13.00
2023-09-08T21:27:19.317Z,14.00
2023-09-08T21:32:24.449Z,13.80
2023-09-08T21:37:27.281Z,12.80
2023-09-08T21:42:30.084Z,13.80
2023-09-08T21:47:34.390Z,13.40
2023-09-08T21:52:39.517Z,12.80
2023-09-08T21:57:42.455Z,14.00
2023-09-08T22:02:46.783Z,14.75
2023-09-08T22:07:49.664Z,13.00
2023-09-08T22:12:52.501Z,12.60
2023-09-08T22:17:56.834Z,13.60
2023-09-08T22:22:59.653Z,11.00
2023-09-08T22:28:02.496Z,10.80
2023-09-08T22:33:07.769Z,12.60
2023-09-08T22:38:10.748Z,13.20
2023-09-08T22:43:13.648Z,11.20
2023-09-08T22:48:19.173Z,11.00
2023-09-08T22:53:22.095Z,12.40
2023-09-08T22:58:26.371Z,10.80
2023-09-08T23:03:30.653Z,11.20
2023-09-08T23:08:33.537Z,13.00
2023-09-08T23:13:36.708Z,11.60
2023-09-08T23:18:41.288Z,13.00
2023-09-08T23:23:44.138Z,11.00
2023-09-08T23:28:46.999Z,13.80
2023-09-08T23:33:51.119Z,13.00
2023-09-08T23:38:53.909Z,11.40
2023-09-08T23:43:56.808Z,11.00
2023-09-08T23:49:03.552Z,12.40
2023-09-08T23:54:06.685Z,10.80
2023-09-08T23:59:10.925Z,12.40
